<?xml version="1.0" encoding="utf-8"?>
<gpx xmlns:xsi="http://www.w3.org/2001/XMLSchema-instance" xmlns:xsd="http://www.w3.org/2001/XMLSchema" version="1.1" creator="Shapelink.com" xmlns="http://www.topografix.com/GPX/1/1" xmlns:gpxtpx="http://www.garmin.com/xmlschemas/TrackPointExtension/v1">
  <metadata>
    <name>Övrigt 3.02 km, 2020-06-12</name>
    <desc></desc>
    <author><name>Marian Moron</name></author> 
    <time>2020-06-12T20:01:58Z</time>
  </metadata>
  <trk>
    <name>Övrigt 3.02 km, 2020-06-12</name>
    <trkseg>
      <trkpt lat="51.228486194082" lon="4.449410245088">
        <ele>0.8</ele>
        <time>2020-06-12T20:01:58Z</time>
      </trkpt>
      <trkpt lat="51.228658777403" lon="4.449050913035">
        <ele>0.4</ele>
        <time>2020-06-12T20:02:49Z</time>
      </trkpt>
      <trkpt lat="51.228974775033" lon="4.448650509672">
        <ele>0.6</ele>
        <time>2020-06-12T20:03:58Z</time>
      </trkpt>
      <trkpt lat="51.228977373422" lon="4.448662076694">
        <ele>0.6</ele>
        <time>2020-06-12T20:03:59Z</time>
      </trkpt>
      <trkpt lat="51.228993215213" lon="4.448684624005">
        <ele>0.6</ele>
        <time>2020-06-12T20:04:03Z</time>
      </trkpt>
      <trkpt lat="51.229279540917" lon="4.448880089913">
        <ele>1</ele>
        <time>2020-06-12T20:04:36Z</time>
      </trkpt>
      <trkpt lat="51.229459165034" lon="4.449213270438">
        <ele>1.2</ele>
        <time>2020-06-12T20:05:09Z</time>
      </trkpt>
      <trkpt lat="51.229540469464" lon="4.449915254563">
        <ele>0</ele>
        <time>2020-06-12T20:06:02Z</time>
      </trkpt>
      <trkpt lat="51.22958774338" lon="4.450186492847">
        <ele>0</ele>
        <time>2020-06-12T20:06:20Z</time>
      </trkpt>
      <trkpt lat="51.229680698651" lon="4.45088277728">
        <ele>0</ele>
        <time>2020-06-12T20:07:12Z</time>
      </trkpt>
      <trkpt lat="51.22987188979" lon="4.450988808315">
        <ele>0.4</ele>
        <time>2020-06-12T20:07:34Z</time>
      </trkpt>
      <trkpt lat="51.230138015115" lon="4.450881519995">
        <ele>0</ele>
        <time>2020-06-12T20:07:58Z</time>
      </trkpt>
      <trkpt lat="51.230421323335" lon="4.450817147003">
        <ele>0</ele>
        <time>2020-06-12T20:08:28Z</time>
      </trkpt>
      <trkpt lat="51.230515200615" lon="4.450825612722">
        <ele>0</ele>
        <time>2020-06-12T20:08:43Z</time>
      </trkpt>
      <trkpt lat="51.2304829303" lon="4.450850255508">
        <ele>2.2</ele>
        <time>2020-06-12T20:09:51Z</time>
      </trkpt>
      <trkpt lat="51.230542609428" lon="4.451061563207">
        <ele>2.8</ele>
        <time>2020-06-12T20:10:08Z</time>
      </trkpt>
      <trkpt lat="51.230672864154" lon="4.451756255079">
        <ele>0</ele>
        <time>2020-06-12T20:11:01Z</time>
      </trkpt>
      <trkpt lat="51.230793228238" lon="4.45245103077">
        <ele>0</ele>
        <time>2020-06-12T20:11:58Z</time>
      </trkpt>
      <trkpt lat="51.230840083059" lon="4.45317941788">
        <ele>0</ele>
        <time>2020-06-12T20:12:54Z</time>
      </trkpt>
      <trkpt lat="51.230898169626" lon="4.453483094117">
        <ele>0</ele>
        <time>2020-06-12T20:13:14Z</time>
      </trkpt>
      <trkpt lat="51.2309606986" lon="4.453901853841">
        <ele>3</ele>
        <time>2020-06-12T20:13:41Z</time>
      </trkpt>
      <trkpt lat="51.231136802319" lon="4.454554971489">
        <ele>0</ele>
        <time>2020-06-12T20:14:31Z</time>
      </trkpt>
      <trkpt lat="51.231151470644" lon="4.454623032517">
        <ele>0</ele>
        <time>2020-06-12T20:14:36Z</time>
      </trkpt>
      <trkpt lat="51.231312319305" lon="4.455305319177">
        <ele>0</ele>
        <time>2020-06-12T20:15:26Z</time>
      </trkpt>
      <trkpt lat="51.231324556879" lon="4.456012332442">
        <ele>0.6</ele>
        <time>2020-06-12T20:16:12Z</time>
      </trkpt>
      <trkpt lat="51.231233445626" lon="4.456264711451">
        <ele>0.8</ele>
        <time>2020-06-12T20:16:29Z</time>
      </trkpt>
      <trkpt lat="51.230830946788" lon="4.456539973047">
        <ele>0</ele>
        <time>2020-06-12T20:17:11Z</time>
      </trkpt>
      <trkpt lat="51.230383856242" lon="4.456547684395">
        <ele>1.8</ele>
        <time>2020-06-12T20:17:54Z</time>
      </trkpt>
      <trkpt lat="51.229932742384" lon="4.456662264968">
        <ele>3.8</ele>
        <time>2020-06-12T20:18:39Z</time>
      </trkpt>
      <trkpt lat="51.229785640039" lon="4.456983375557">
        <ele>0.6</ele>
        <time>2020-06-12T20:19:07Z</time>
      </trkpt>
      <trkpt lat="51.229831405213" lon="4.457425185506">
        <ele>0</ele>
        <time>2020-06-12T20:19:32Z</time>
      </trkpt>
      <trkpt lat="51.229764098556" lon="4.45788501654">
        <ele>0</ele>
        <time>2020-06-12T20:20:04Z</time>
      </trkpt>
      <trkpt lat="51.229636945133" lon="4.458008062832">
        <ele>0</ele>
        <time>2020-06-12T20:20:37Z</time>
      </trkpt>
      <trkpt lat="51.229730151861" lon="4.458317438761">
        <ele>0</ele>
        <time>2020-06-12T20:32:04Z</time>
      </trkpt>
      <trkpt lat="51.229367215591" lon="4.458029017582">
        <ele>0</ele>
        <time>2020-06-12T20:32:19Z</time>
      </trkpt>
      <trkpt lat="51.229143167404" lon="4.458105544329">
        <ele>0</ele>
        <time>2020-06-12T20:33:36Z</time>
      </trkpt>
      <trkpt lat="51.228812082354" lon="4.458191458804">
        <ele>0</ele>
        <time>2020-06-12T20:33:59Z</time>
      </trkpt>
      <trkpt lat="51.228566157408" lon="4.45839212149">
        <ele>0</ele>
        <time>2020-06-12T20:34:32Z</time>
      </trkpt>
      <trkpt lat="51.228523577356" lon="4.458770731913">
        <ele>0</ele>
        <time>2020-06-12T20:35:02Z</time>
      </trkpt>
      <trkpt lat="51.228552746368" lon="4.459058398721">
        <ele>0</ele>
        <time>2020-06-12T20:35:24Z</time>
      </trkpt>
      <trkpt lat="51.228383096712" lon="4.459702631555">
        <ele>1.2</ele>
        <time>2020-06-12T20:36:09Z</time>
      </trkpt>
      <trkpt lat="51.228381755608" lon="4.459794161903">
        <ele>1.4</ele>
        <time>2020-06-12T20:36:14Z</time>
      </trkpt>
      <trkpt lat="51.228324004317" lon="4.460085852023">
        <ele>0.4</ele>
        <time>2020-06-12T20:36:45Z</time>
      </trkpt>
      <trkpt lat="51.228344791429" lon="4.46030822383">
        <ele>0</ele>
        <time>2020-06-12T20:36:57Z</time>
      </trkpt>
      <trkpt lat="51.228465993703" lon="4.460558591183">
        <ele>0</ele>
        <time>2020-06-12T20:37:10Z</time>
      </trkpt>
      <trkpt lat="51.22844696679" lon="4.460566973083">
        <ele>0</ele>
        <time>2020-06-12T20:37:18Z</time>
      </trkpt>
      <trkpt lat="51.228361722867" lon="4.460468737215">
        <ele>0</ele>
        <time>2020-06-12T20:37:34Z</time>
      </trkpt>
      <trkpt lat="51.228332386217" lon="4.460476616201">
        <ele>0</ele>
        <time>2020-06-12T20:37:48Z</time>
      </trkpt>
      <trkpt lat="51.228294332391" lon="4.460418361996">
        <ele>0</ele>
        <time>2020-06-12T20:37:54Z</time>
      </trkpt>
      <trkpt lat="51.228181176741" lon="4.460452308691">
        <ele>0.2</ele>
        <time>2020-06-12T20:38:04Z</time>
      </trkpt>
      <trkpt lat="51.228195425971" lon="4.460484159911">
        <ele>0</ele>
        <time>2020-06-12T20:38:07Z</time>
      </trkpt>
      <trkpt lat="51.228290141441" lon="4.460582060503">
        <ele>0</ele>
        <time>2020-06-12T20:38:23Z</time>
      </trkpt>
      <trkpt lat="51.228305480318" lon="4.460615169008">
        <ele>0</ele>
        <time>2020-06-12T20:38:26Z</time>
      </trkpt>
      <trkpt lat="51.228641845965" lon="4.46113887012">
        <ele>13</ele>
        <time>2020-06-12T20:39:23Z</time>
      </trkpt>
      <trkpt lat="51.229082230991" lon="4.461300221695">
        <ele>8.8</ele>
        <time>2020-06-12T20:40:02Z</time>
      </trkpt>
      <trkpt lat="51.229107795786" lon="4.461369959103">
        <ele>8</ele>
        <time>2020-06-12T20:40:15Z</time>
      </trkpt>
      <trkpt lat="51.22909237309" lon="4.461443887461">
        <ele>9</ele>
        <time>2020-06-12T20:40:22Z</time>
      </trkpt>
      <trkpt lat="51.229049709219" lon="4.461443719823">
        <ele>13.6</ele>
        <time>2020-06-12T20:40:39Z</time>
      </trkpt>
      <trkpt lat="51.229179628669" lon="4.461373311863">
        <ele>16</ele>
        <time>2020-06-12T20:40:55Z</time>
      </trkpt>
      <trkpt lat="51.229414154231" lon="4.461453023732">
        <ele>6.4</ele>
        <time>2020-06-12T20:41:12Z</time>
      </trkpt>
      <trkpt lat="51.229469642409" lon="4.461407593834">
        <ele>5.4</ele>
        <time>2020-06-12T20:41:18Z</time>
      </trkpt>
      <trkpt lat="51.229706682541" lon="4.461205003311">
        <ele>1</ele>
        <time>2020-06-12T20:41:48Z</time>
      </trkpt>
      <trkpt lat="51.229825454064" lon="4.461421004874">
        <ele>0</ele>
        <time>2020-06-12T20:42:07Z</time>
      </trkpt>
      <trkpt lat="51.229909273064" lon="4.461665923992">
        <ele>0</ele>
        <time>2020-06-12T20:42:24Z</time>
      </trkpt>
      <trkpt lat="51.229946823976" lon="4.461838172037">
        <ele>0.2</ele>
        <time>2020-06-12T20:42:39Z</time>
      </trkpt>
      <trkpt lat="51.229984710164" lon="4.461993153368">
        <ele>1.6</ele>
        <time>2020-06-12T20:42:57Z</time>
      </trkpt>
      <trkpt lat="51.230166010661" lon="4.462659514418">
        <ele>0</ele>
        <time>2020-06-12T20:43:43Z</time>
      </trkpt>
      <trkpt lat="51.230347562615" lon="4.463310117496">
        <ele>0</ele>
        <time>2020-06-12T20:44:35Z</time>
      </trkpt>
      <trkpt lat="51.230421155697" lon="4.463532154027">
        <ele>0</ele>
        <time>2020-06-12T20:45:25Z</time>
      </trkpt>
      <trkpt lat="51.230180176072" lon="4.464024003919">
        <ele>0</ele>
        <time>2020-06-12T20:46:13Z</time>
      </trkpt>
      <trkpt lat="51.2298710516" lon="4.464277556394">
        <ele>2</ele>
        <time>2020-06-12T20:46:56Z</time>
      </trkpt>
      <trkpt lat="51.22942010538" lon="4.464327847794">
        <ele>0.4</ele>
        <time>2020-06-12T20:47:36Z</time>
      </trkpt>
      <trkpt lat="51.229400575553" lon="4.464328099251">
        <ele>0.4</ele>
        <time>2020-06-12T20:47:38Z</time>
      </trkpt>
      <trkpt lat="51.229180718316" lon="4.46434997601">
        <ele>3.4</ele>
        <time>2020-06-12T20:48:03Z</time>
      </trkpt>
      <trkpt lat="51.228835216398" lon="4.464451061724">
        <ele>5</ele>
        <time>2020-06-12T20:48:55Z</time>
      </trkpt>
      <trkpt lat="51.228754750158" lon="4.464717270868">
        <ele>1.2</ele>
        <time>2020-06-12T20:49:33Z</time>
      </trkpt>
      <trkpt lat="51.228735890883" lon="4.465151872383">
        <ele>0.4</ele>
        <time>2020-06-12T20:50:04Z</time>
      </trkpt>
      <trkpt lat="51.228712756839" lon="4.46542872654">
        <ele>0</ele>
        <time>2020-06-12T20:50:25Z</time>
      </trkpt>
      <trkpt lat="51.228658693584" lon="4.465685128861">
        <ele>0</ele>
        <time>2020-06-12T20:50:42Z</time>
      </trkpt>
      <trkpt lat="51.228303720119" lon="4.466110342648">
        <ele>0</ele>
        <time>2020-06-12T20:51:25Z</time>
      </trkpt>
      <trkpt lat="51.228253261081" lon="4.466205309575">
        <ele>0</ele>
        <time>2020-06-12T20:51:34Z</time>
      </trkpt>
      <trkpt lat="51.228001384986" lon="4.466359871811">
        <ele>0</ele>
        <time>2020-06-12T20:52:00Z</time>
      </trkpt>
      <trkpt lat="51.227931228483" lon="4.466354255938">
        <ele>0</ele>
        <time>2020-06-12T20:52:08Z</time>
      </trkpt>
      <trkpt lat="51.227874650658" lon="4.466212685647">
        <ele>0</ele>
        <time>2020-06-12T20:52:21Z</time>
      </trkpt>
      <trkpt lat="51.227868028957" lon="4.466173458355">
        <ele>0</ele>
        <time>2020-06-12T20:52:24Z</time>
      </trkpt>
      <trkpt lat="51.227861574894" lon="4.465793423009">
        <ele>0</ele>
        <time>2020-06-12T20:52:54Z</time>
      </trkpt>
      <trkpt lat="51.227865011473" lon="4.465385224479">
        <ele>0.4</ele>
        <time>2020-06-12T20:53:21Z</time>
      </trkpt>
      <trkpt lat="51.227937598727" lon="4.464980043433">
        <ele>10.2</ele>
        <time>2020-06-12T20:53:50Z</time>
      </trkpt>
      <trkpt lat="51.227930306474" lon="4.464260457318">
        <ele>18.8</ele>
        <time>2020-06-12T20:54:41Z</time>
      </trkpt>
      <trkpt lat="51.227933323958" lon="4.464214943601">
        <ele>19</ele>
        <time>2020-06-12T20:54:44Z</time>
      </trkpt>
      <trkpt lat="51.227897449426" lon="4.463725943555">
        <ele>22</ele>
        <time>2020-06-12T20:55:19Z</time>
      </trkpt>
      <trkpt lat="51.227799297377" lon="4.463031586959">
        <ele>22.6</ele>
        <time>2020-06-12T20:56:09Z</time>
      </trkpt>
      <trkpt lat="51.22771271235" lon="4.462893285609">
        <ele>14.8</ele>
        <time>2020-06-12T20:56:26Z</time>
      </trkpt>
      <trkpt lat="51.227672311592" lon="4.462669321241">
        <ele>12</ele>
        <time>2020-06-12T20:56:57Z</time>
      </trkpt>
      <trkpt lat="51.227481455729" lon="4.462008743702">
        <ele>8.8</ele>
        <time>2020-06-12T20:57:53Z</time>
      </trkpt>
      <trkpt lat="51.22740928757" lon="4.461609429986">
        <ele>9.6</ele>
        <time>2020-06-12T20:58:21Z</time>
      </trkpt>
      <trkpt lat="51.227414400529" lon="4.460922281824">
        <ele>4.6</ele>
        <time>2020-06-12T20:59:13Z</time>
      </trkpt>
      <trkpt lat="51.227553707707" lon="4.460775514755">
        <ele>8</ele>
        <time>2020-06-12T20:59:53Z</time>
      </trkpt>
      <trkpt lat="51.227968527938" lon="4.460496648942">
        <ele>6.6</ele>
        <time>2020-06-12T21:00:39Z</time>
      </trkpt>
      <trkpt lat="51.228250662692" lon="4.460268325986">
        <ele>6.2</ele>
        <time>2020-06-12T21:01:05Z</time>
      </trkpt>
      <trkpt lat="51.228347305999" lon="4.459746468892">
        <ele>0</ele>
        <time>2020-06-12T21:01:29Z</time>
      </trkpt>
      <trkpt lat="51.228563894295" lon="4.459099302393">
        <ele>7.8</ele>
        <time>2020-06-12T21:02:02Z</time>
      </trkpt>
      <trkpt lat="51.228580993371" lon="4.459034929401">
        <ele>9</ele>
        <time>2020-06-12T21:02:06Z</time>
      </trkpt>
      <trkpt lat="51.228587279796" lon="4.458354654397">
        <ele>6.6</ele>
        <time>2020-06-12T21:02:48Z</time>
      </trkpt>
      <trkpt lat="51.228621561767" lon="4.458302267522">
        <ele>7.2</ele>
        <time>2020-06-12T21:02:53Z</time>
      </trkpt>
      <trkpt lat="51.229059432223" lon="4.458108394175">
        <ele>8.2</ele>
        <time>2020-06-12T21:03:34Z</time>
      </trkpt>
      <trkpt lat="51.229377692966" lon="4.45796632097">
        <ele>15</ele>
        <time>2020-06-12T21:04:07Z</time>
      </trkpt>
      <trkpt lat="51.229703748876" lon="4.457913934095">
        <ele>21.8</ele>
        <time>2020-06-12T21:04:57Z</time>
      </trkpt>
      <trkpt lat="51.229704838523" lon="4.457913515">
        <ele>21.8</ele>
        <time>2020-06-12T21:04:59Z</time>
      </trkpt>
    </trkseg>
  </trk>
</gpx>